Time;durP1;ratioP1;P1;durP2;ratioP2;P2;SDS_P1;SDS_P2;PMS_P1;PMS_P2;Temp;Humidity;BMP_temperature;BMP_pressure;BME280_temperature;BME280_humidity;BME280_pressure;Samples;Min_cycle;Max_cycle;Signal;HPM_P1;HPM_P2
2021/07/17 00:02:15;;;;;;;6.75;6.15;;;17.10;99.90;;;;;;6235346;28;20102;-88
2021/07/17 00:05:16;;;;;;;7.18;6.47;;;17.10;99.90;;;;;;6251493;28;20059;-84
2021/07/17 00:08:17;;;;;;;10.30;6.77;;;17.10;99.90;;;;;;6234967;28;20072;-88
2021/07/17 00:11:18;;;;;;;6.97;6.28;;;17.00;99.90;;;;;;6234884;28;20066;-86
2021/07/17 00:14:18;;;;;;;6.78;6.18;;;17.00;99.90;;;;;;6235148;28;20060;-87
2021/07/17 00:17:19;;;;;;;8.57;6.55;;;16.90;99.90;;;;;;6234490;28;20035;-85
2021/07/17 00:20:20;;;;;;;10.85;6.35;;;16.80;99.90;;;;;;6234966;28;20029;-86
2021/07/17 00:23:20;;;;;;;20.58;7.40;;;16.80;99.90;;;;;;6234121;28;20032;-85
2021/07/17 00:26:21;;;;;;;8.85;6.93;;;16.80;99.90;;;;;;6233065;28;20172;-88
2021/07/17 00:29:22;;;;;;;8.35;7.13;;;16.80;99.90;;;;;;6250681;28;20041;-88
2021/07/17 00:32:22;;;;;;;7.43;6.72;;;16.80;99.90;;;;;;6234331;28;20071;-85
2021/07/17 00:35:23;;;;;;;7.25;6.38;;;16.70;99.90;;;;;;6250957;28;20352;-85
2021/07/17 00:38:23;;;;;;;6.55;5.95;;;16.70;99.90;;;;;;6234528;28;20071;-89
2021/07/17 00:41:24;;;;;;;7.03;6.32;;;16.70;99.90;;;;;;6250709;28;20036;-86
2021/07/17 00:44:24;;;;;;;7.15;6.30;;;16.60;99.90;;;;;;6234183;28;20033;-85
2021/07/17 00:47:25;;;;;;;7.30;6.32;;;16.60;99.90;;;;;;6250493;28;20526;-88
2021/07/17 00:50:27;;;;;;;9.48;6.85;;;16.60;99.90;;;;;;6234245;28;20075;-86
2021/07/17 00:53:27;;;;;;;11.60;7.40;;;16.50;99.90;;;;;;6250519;28;20033;-85
2021/07/17 00:56:29;;;;;;;8.20;7.10;;;16.50;99.90;;;;;;6233724;28;20028;-85
2021/07/17 00:59:31;;;;;;;7.35;6.50;;;16.50;99.90;;;;;;6233992;28;20049;-85
2021/07/17 01:02:38;;;;;;;9.48;6.85;;;16.40;99.90;;;;;;6250237;28;20040;-87
2021/07/17 01:05:39;;;;;;;9.68;6.93;;;16.50;99.90;;;;;;6234758;28;20033;-85
2021/07/17 01:08:39;;;;;;;8.52;7.28;;;16.50;99.90;;;;;;6250042;28;20119;-86
2021/07/17 01:11:40;;;;;;;9.43;6.95;;;16.50;99.90;;;;;;6234032;28;20033;-85
2021/07/17 01:14:40;;;;;;;7.60;6.53;;;16.60;99.90;;;;;;6249890;28;20464;-86
2021/07/17 01:17:41;;;;;;;7.20;6.50;;;16.60;99.90;;;;;;6233651;28;20090;-85
2021/07/17 01:20:42;;;;;;;7.80;6.63;;;16.50;99.90;;;;;;6233962;28;20025;-85
2021/07/17 01:23:42;;;;;;;9.70;6.95;;;16.50;99.90;;;;;;6234051;28;20029;-86
2021/07/17 01:26:43;;;;;;;6.85;6.18;;;16.50;99.90;;;;;;6234157;28;20024;-85
2021/07/17 01:29:45;;;;;;;7.05;6.35;;;16.50;99.90;;;;;;6233640;28;20757;-86
2021/07/17 01:32:45;;;;;;;7.78;6.80;;;16.50;99.90;;;;;;6234375;28;20107;-86
2021/07/17 01:35:48;;;;;;;6.32;5.72;;;16.50;99.90;;;;;;6253608;28;20037;-85
2021/07/17 01:38:49;;;;;;;6.38;5.78;;;16.50;99.90;;;;;;6239090;28;20032;-84
2021/07/17 01:41:50;;;;;;;6.93;6.32;;;16.50;99.90;;;;;;6237963;28;20028;-88
2021/07/17 01:44:50;;;;;;;7.10;5.80;;;16.50;99.90;;;;;;6238336;28;20033;-86
2021/07/17 01:47:51;;;;;;;7.72;6.32;;;16.50;99.90;;;;;;6237595;28;20060;-83
2021/07/17 01:50:52;;;;;;;6.28;5.68;;;16.50;99.90;;;;;;6237412;28;20036;-85
2021/07/17 01:53:55;;;;;;;7.32;5.82;;;16.50;99.90;;;;;;6254180;28;20057;-84
2021/07/17 01:56:56;;;;;;;6.32;5.30;;;16.50;99.90;;;;;;6238348;28;20033;-84
2021/07/17 01:59:56;;;;;;;8.38;5.13;;;16.50;99.90;;;;;;6237919;28;20123;-88
2021/07/17 02:02:57;;;;;;;10.05;6.45;;;16.60;99.90;;;;;;6237705;28;20037;-86
2021/07/17 02:05:59;;;;;;;6.90;5.43;;;16.50;99.90;;;;;;6237958;28;20025;-87
2021/07/17 02:08:59;;;;;;;6.60;5.60;;;16.50;99.90;;;;;;6238101;28;20045;-86
2021/07/17 02:12:02;;;;;;;11.60;6.05;;;16.60;99.90;;;;;;6237855;28;20044;-87
2021/07/17 02:15:03;;;;;;;16.95;6.32;;;16.60;99.90;;;;;;6237404;28;20466;-87
2021/07/17 02:18:04;;;;;;;8.80;6.10;;;16.60;99.90;;;;;;6237788;28;20025;-85
2021/07/17 02:21:06;;;;;;;8.20;6.70;;;16.30;99.90;;;;;;6236602;28;20055;-85
2021/07/17 02:24:07;;;;;;;6.97;6.10;;;16.60;99.90;;;;;;6237334;28;20559;-85
2021/07/17 02:27:07;;;;;;;7.78;6.30;;;16.60;99.90;;;;;;6237025;28;20067;-85
2021/07/17 02:30:09;;;;;;;7.45;5.90;;;16.60;99.90;;;;;;6253438;28;20029;-86
2021/07/17 02:33:10;;;;;;;8.63;5.97;;;16.60;99.90;;;;;;6237036;28;20029;-84
2021/07/17 02:36:11;;;;;;;8.13;5.77;;;16.60;99.90;;;;;;6253361;28;20115;-85
2021/07/17 02:39:11;;;;;;;6.45;5.35;;;16.60;99.90;;;;;;6237334;28;20029;-84
2021/07/17 02:42:12;;;;;;;6.20;5.30;;;16.60;99.90;;;;;;6237085;28;20059;-85
2021/07/17 02:45:13;;;;;;;6.07;5.47;;;16.60;99.90;;;;;;6236670;28;20025;-88
2021/07/17 02:48:14;;;;;;;7.20;5.28;;;16.60;99.90;;;;;;6253039;28;20556;-85
2021/07/17 02:51:14;;;;;;;7.15;5.38;;;16.60;99.90;;;;;;6236824;28;20036;-87
2021/07/17 02:54:16;;;;;;;7.22;5.35;;;16.60;99.90;;;;;;6236270;28;20079;-88
2021/07/17 02:57:16;;;;;;;8.82;5.63;;;16.70;99.90;;;;;;6237142;28;20061;-85
2021/07/17 03:00:17;;;;;;;7.28;5.65;;;16.70;99.90;;;;;;6236180;28;20029;-85
2021/07/17 03:03:18;;;;;;;6.53;5.88;;;16.70;99.90;;;;;;6235839;28;20037;-84
2021/07/17 03:06:18;;;;;;;7.35;6.32;;;16.70;99.90;;;;;;6236309;28;20029;-88
2021/07/17 03:09:19;;;;;;;8.05;6.25;;;16.70;99.90;;;;;;6235667;28;20039;-87
2021/07/17 03:12:19;;;;;;;7.93;6.65;;;16.70;99.90;;;;;;6253057;28;20486;-87
2021/07/17 03:15:20;;;;;;;9.40;7.15;;;16.70;99.90;;;;;;6252723;28;20025;-85
2021/07/17 03:18:20;;;;;;;8.32;7.00;;;16.70;99.90;;;;;;6251749;28;20029;-85
2021/07/17 03:21:21;;;;;;;7.68;6.80;;;16.80;99.90;;;;;;6252617;28;20025;-87
2021/07/17 03:24:22;;;;;;;8.05;7.25;;;16.80;99.90;;;;;;6235986;28;20052;-89
2021/07/17 03:27:22;;;;;;;10.77;6.80;;;16.80;99.90;;;;;;6235891;28;20141;-86
2021/07/17 03:30:23;;;;;;;12.35;8.32;;;16.80;99.90;;;;;;6235953;28;20124;-89
2021/07/17 03:33:23;;;;;;;11.13;8.35;;;16.80;99.90;;;;;;6252317;28;20118;-86
2021/07/17 03:36:24;;;;;;;15.13;11.57;;;16.80;99.90;;;;;;6235577;28;20029;-86
2021/07/17 03:39:25;;;;;;;17.23;11.98;;;16.80;99.90;;;;;;6236033;28;20458;-89
2021/07/17 03:42:25;;;;;;;18.33;12.40;;;16.80;99.90;;;;;;6235826;28;20078;-89
2021/07/17 03:45:26;;;;;;;16.30;11.55;;;16.90;99.90;;;;;;6235831;28;20029;-88
2021/07/17 03:48:26;;;;;;;13.93;11.10;;;16.90;99.90;;;;;;6235369;28;20059;-85
2021/07/17 03:51:27;;;;;;;17.33;11.00;;;16.90;99.90;;;;;;6235274;28;20033;-85
2021/07/17 03:54:28;;;;;;;18.42;11.07;;;16.80;99.90;;;;;;6234813;28;20128;-85
2021/07/17 03:57:28;;;;;;;16.75;12.00;;;16.80;99.90;;;;;;6250541;28;20112;-86
2021/07/17 04:00:29;;;;;;;25.33;12.55;;;16.90;99.90;;;;;;6250810;28;20057;-88
2021/07/17 04:03:32;;;;;;;18.88;13.60;;;16.90;99.90;;;;;;6251017;28;20021;-85
2021/07/17 04:06:34;;;;;;;17.27;12.23;;;16.80;99.90;;;;;;6235626;28;20028;-85
2021/07/17 04:09:34;;;;;;;20.77;12.82;;;15.40;99.90;;;;;;6251029;28;20041;-85
2021/07/17 04:12:35;;;;;;;17.23;13.57;;;16.80;99.90;;;;;;6251277;28;20482;-86
2021/07/17 04:15:36;;;;;;;15.50;11.05;;;16.80;99.90;;;;;;6234487;28;20494;-87
2021/07/17 04:18:36;;;;;;;15.35;11.43;;;16.80;99.90;;;;;;6250801;28;20029;-84
2021/07/17 04:21:37;;;;;;;13.43;12.02;;;16.80;99.90;;;;;;6251147;28;20059;-84
2021/07/17 04:24:37;;;;;;;17.40;11.38;;;16.90;99.90;;;;;;6250763;28;20028;-85
2021/07/17 04:27:39;;;;;;;16.55;9.43;;;16.90;99.90;;;;;;6234203;28;20118;-85
2021/07/17 04:30:39;;;;;;;12.67;8.70;;;16.90;99.90;;;;;;6234388;28;20501;-85
2021/07/17 04:33:40;;;;;;;12.23;8.45;;;16.90;99.90;;;;;;6234190;28;20033;-86
2021/07/17 04:36:41;;;;;;;12.57;9.27;;;16.90;99.90;;;;;;6234262;28;20025;-86
2021/07/17 04:39:42;;;;;;;11.68;9.45;;;17.00;99.90;;;;;;6234253;28;20467;-86
2021/07/17 04:42:42;;;;;;;11.98;10.48;;;16.90;99.90;;;;;;6234679;28;20060;-86
2021/07/17 04:45:43;;;;;;;15.48;10.40;;;17.00;99.90;;;;;;6254820;28;20060;-85
2021/07/17 04:48:43;;;;;;;14.32;10.52;;;17.00;99.90;;;;;;6233865;28;20064;-86
2021/07/17 04:51:44;;;;;;;16.60;11.15;;;17.00;99.90;;;;;;6250439;28;20045;-88
2021/07/17 04:54:45;;;;;;;15.85;11.75;;;17.00;99.90;;;;;;6234063;28;20040;-85
2021/07/17 04:57:46;;;;;;;15.50;11.23;;;17.00;99.90;;;;;;6250278;28;20064;-88
2021/07/17 05:00:46;;;;;;;13.25;10.23;;;17.00;99.90;;;;;;6233922;28;20033;-87
2021/07/17 05:03:47;;;;;;;14.60;10.75;;;17.00;99.90;;;;;;6233972;28;20115;-85
2021/07/17 05:06:48;;;;;;;15.50;12.52;;;17.00;99.90;;;;;;6233953;28;20029;-87
2021/07/17 05:09:48;;;;;;;14.00;12.30;;;17.00;99.90;;;;;;6237016;28;20037;-85
2021/07/17 05:12:49;;;;;;;16.25;12.48;;;17.00;99.90;;;;;;6255415;28;20029;-87
2021/07/17 05:15:50;;;;;;;17.20;13.10;;;17.00;99.90;;;;;;6238723;28;20459;-84
2021/07/17 05:18:50;;;;;;;17.80;13.75;;;17.10;99.90;;;;;;6238082;28;20483;-85
2021/07/17 05:21:51;;;;;;;14.95;12.85;;;17.40;99.90;;;;;;6238195;28;20078;-85
2021/07/17 05:24:51;;;;;;;16.20;12.52;;;17.10;99.90;;;;;;6255097;28;20063;-85
2021/07/17 05:27:52;;;;;;;13.10;11.70;;;17.20;99.90;;;;;;6238414;28;20086;-87
2021/07/17 05:30:52;;;;;;;21.33;13.05;;;17.40;99.90;;;;;;6238795;28;20086;-85
2021/07/17 05:33:53;;;;;;;21.52;15.63;;;17.40;99.90;;;;;;6237833;28;20036;-87
2021/07/17 05:36:54;;;;;;;19.58;15.30;;;17.50;99.90;;;;;;6238348;28;20036;-86
2021/07/17 05:39:54;;;;;;;27.27;19.15;;;17.60;99.90;;;;;;6237672;28;20033;-85
2021/07/17 05:42:55;;;;;;;30.77;20.58;;;17.50;99.90;;;;;;6238051;28;20047;-86
2021/07/17 05:45:56;;;;;;;34.33;22.48;;;17.50;99.90;;;;;;6238169;28;20083;-85
2021/07/17 05:48:56;;;;;;;35.53;22.20;;;17.50;99.90;;;;;;6253720;28;20795;-86
2021/07/17 05:51:57;;;;;;;30.63;19.95;;;17.50;99.90;;;;;;6238269;28;20036;-85
2021/07/17 05:54:57;;;;;;;25.60;18.67;;;17.50;99.90;;;;;;6237556;28;20577;-86
2021/07/17 05:57:58;;;;;;;25.23;16.77;;;17.50;99.90;;;;;;6237723;28;20375;-85
2021/07/17 06:00:59;;;;;;;21.77;15.35;;;17.50;99.90;;;;;;6254278;28;20036;-85
2021/07/17 06:04:01;;;;;;;17.25;14.43;;;17.50;99.90;;;;;;6237801;28;20382;-85
2021/07/17 06:07:02;;;;;;;21.83;16.42;;;17.60;99.90;;;;;;6254313;28;20025;-86
2021/07/17 06:10:03;;;;;;;15.20;13.48;;;17.60;99.90;;;;;;6237190;28;20056;-85
2021/07/17 06:13:05;;;;;;;12.00;9.90;;;17.70;99.90;;;;;;6237168;28;20029;-84
2021/07/17 06:16:05;;;;;;;21.00;16.42;;;17.80;99.90;;;;;;6237229;28;20021;-84
2021/07/17 06:19:06;;;;;;;24.02;17.02;;;18.00;99.90;;;;;;6236242;28;20037;-87
2021/07/17 06:22:08;;;;;;;21.98;17.50;;;18.20;99.90;;;;;;6236656;28;20052;-85
2021/07/17 06:25:09;;;;;;;21.77;17.95;;;18.30;99.90;;;;;;6253193;28;20405;-84
2021/07/17 06:28:09;;;;;;;21.58;15.85;;;18.30;99.90;;;;;;6253635;28;20132;-85
2021/07/17 06:31:10;;;;;;;18.88;15.07;;;18.30;99.90;;;;;;6236566;28;20028;-86
2021/07/17 06:34:11;;;;;;;18.95;15.38;;;18.30;99.90;;;;;;6253472;28;20090;-86
2021/07/17 06:37:11;;;;;;;21.27;16.08;;;18.40;99.90;;;;;;6236743;28;20111;-85
2021/07/17 06:40:13;;;;;;;22.30;18.00;;;18.50;99.90;;;;;;6252618;28;20040;-86
2021/07/17 06:43:14;;;;;;;21.33;16.85;;;18.50;99.90;;;;;;6236345;28;20060;-84
2021/07/17 06:46:14;;;;;;;23.20;17.15;;;18.60;99.90;;;;;;6236113;28;20029;-85
2021/07/17 06:49:15;;;;;;;24.63;19.92;;;18.60;99.90;;;;;;6235165;28;20091;-86
2021/07/17 06:52:16;;;;;;;22.45;18.45;;;18.70;99.90;;;;;;6235644;28;20029;-84
2021/07/17 06:55:16;;;;;;;22.10;18.23;;;18.90;99.90;;;;;;6252569;28;20436;-84
2021/07/17 06:58:17;;;;;;;26.08;18.83;;;19.10;99.90;;;;;;6252454;28;20561;-83
2021/07/17 07:01:18;;;;;;;23.08;18.00;;;19.30;99.90;;;;;;6252538;28;20405;-85
2021/07/17 07:04:18;;;;;;;19.50;17.42;;;19.40;99.90;;;;;;6252213;28;20040;-83
2021/07/17 07:07:19;;;;;;;21.73;17.95;;;19.40;99.90;;;;;;6235666;28;20094;-85
2021/07/17 07:10:20;;;;;;;22.95;18.85;;;19.30;99.90;;;;;;6235461;28;20064;-88
2021/07/17 07:13:20;;;;;;;26.85;17.95;;;19.30;99.90;;;;;;6235535;28;20033;-78
2021/07/17 07:16:39;;;;;;;26.05;20.05;;;19.80;99.90;;;;;;6255605;28;20128;-86
2021/07/17 07:19:40;;;;;;;29.65;20.52;;;19.30;99.90;;;;;;6252113;28;20033;-84
2021/07/17 07:22:40;;;;;;;27.73;20.30;;;19.30;99.90;;;;;;6235585;28;20037;-84
2021/07/17 07:25:41;;;;;;;27.15;18.90;;;19.30;99.90;;;;;;6250168;28;20426;-85
2021/07/17 07:28:42;;;;;;;26.52;18.83;;;19.30;99.90;;;;;;6269323;28;20053;-84
2021/07/17 07:31:43;;;;;;;23.25;19.02;;;19.60;99.90;;;;;;6250652;28;20486;-83
2021/07/17 07:34:43;;;;;;;25.73;19.65;;;19.70;99.90;;;;;;6235791;28;20072;-85
2021/07/17 07:37:44;;;;;;;25.85;19.55;;;19.60;99.90;;;;;;6235965;28;20041;-87
2021/07/17 07:40:45;;;;;;;24.27;19.48;;;19.40;99.90;;;;;;6236040;28;20033;-88
2021/07/17 07:43:46;;;;;;;25.42;18.92;;;19.30;99.90;;;;;;6235578;28;20498;-88
2021/07/17 07:46:47;;;;;;;24.73;20.50;;;19.30;99.90;;;;;;6235379;28;20080;-86
2021/07/17 07:49:47;;;;;;;24.23;19.63;;;19.20;99.90;;;;;;6235354;28;20059;-84
2021/07/17 07:52:54;;;;;;;24.10;18.95;;;19.20;99.90;;;;;;6251853;28;20055;-89
2021/07/17 07:55:55;;;;;;;26.13;20.23;;;19.30;99.90;;;;;;6238312;28;20512;-91
2021/07/17 07:58:59;;;;;;;37.45;20.77;;;19.40;99.90;;;;;;6253011;28;20032;-89
2021/07/17 08:01:59;;;;;;;24.48;18.70;;;18.50;99.90;;;;;;6234959;28;20451;-84
2021/07/17 08:05:00;;;;;;;21.73;18.10;;;19.40;99.90;;;;;;6234370;28;20035;-82
2021/07/17 08:08:00;;;;;;;25.02;22.10;;;19.30;99.90;;;;;;6250509;28;20041;-81
2021/07/17 08:11:01;;;;;;;27.40;22.45;;;19.20;99.90;;;;;;6251204;28;20041;-81
2021/07/17 08:14:02;;;;;;;27.50;22.98;;;19.20;99.90;;;;;;6234905;28;20048;-85
2021/07/17 08:17:06;;;;;;;26.25;22.10;;;19.00;99.90;;;;;;6234845;28;20021;-82
2021/07/17 08:20:09;;;;;;;24.67;22.00;;;19.00;99.90;;;;;;6234766;28;20481;-86
2021/07/17 08:23:10;;;;;;;26.38;22.23;;;18.90;99.90;;;;;;6251353;28;20041;-81
2021/07/17 08:26:10;;;;;;;30.00;23.10;;;18.80;99.90;;;;;;6234369;28;20051;-81
2021/07/17 08:29:11;;;;;;;26.17;22.10;;;18.20;99.90;;;;;;6250675;28;20471;-81
2021/07/17 08:32:11;;;;;;;25.60;22.10;;;18.70;99.90;;;;;;6234274;28;20074;-86
2021/07/17 08:35:12;;;;;;;24.33;19.42;;;18.70;99.90;;;;;;6250783;28;20037;-81
2021/07/17 08:38:12;;;;;;;24.58;20.00;;;18.60;99.90;;;;;;6250741;28;20036;-82
2021/07/17 08:41:13;;;;;;;23.95;19.58;;;18.60;99.90;;;;;;6250999;28;20029;-81
2021/07/17 08:44:14;;;;;;;23.92;20.30;;;18.60;99.90;;;;;;6233845;28;20024;-83
2021/07/17 08:47:17;;;;;;;24.65;20.63;;;18.60;99.90;;;;;;6233609;28;20053;-83
2021/07/17 08:50:23;;;;;;;27.48;21.40;;;18.60;99.90;;;;;;6250733;28;20059;-82
2021/07/17 08:53:24;;;;;;;21.92;19.27;;;18.50;99.90;;;;;;6234495;28;20071;-85
2021/07/17 08:56:25;;;;;;;23.52;20.17;;;18.50;99.90;;;;;;6234163;28;20029;-80
2021/07/17 08:59:25;;;;;;;23.63;20.35;;;18.50;99.90;;;;;;6233940;28;20107;-84
2021/07/17 09:02:26;;;;;;;25.60;20.55;;;18.50;99.90;;;;;;6234222;28;20119;-87
2021/07/17 09:05:30;;;;;;;24.05;20.08;;;18.60;99.90;;;;;;6233748;28;20029;-81
2021/07/17 09:08:31;;;;;;;23.40;20.00;;;18.70;99.90;;;;;;6250211;28;20060;-82
2021/07/17 09:11:40;;;;;;;20.17;17.67;;;18.80;99.90;;;;;;6250264;28;20061;-81
2021/07/17 09:14:44;;;;;;;20.52;18.33;;;18.90;99.90;;;;;;6250979;28;20471;-83
2021/07/17 09:17:45;;;;;;;21.83;18.70;;;19.00;99.90;;;;;;6234599;28;20076;-82
2021/07/17 09:21:02;;;;;;;24.08;19.05;;;19.20;99.90;;;;;;6250198;28;20047;-82
2021/07/17 09:24:03;;;;;;;22.55;18.88;;;19.30;99.90;;;;;;6250469;28;20079;-82
2021/07/17 09:27:04;;;;;;;20.00;17.85;;;19.40;99.90;;;;;;6266453;28;20029;-84
2021/07/17 09:30:25;;;;;;;22.52;18.17;;;19.60;99.90;;;;;;6267338;28;20040;-83
2021/07/17 09:33:26;;;;;;;25.88;20.02;;;19.70;99.90;;;;;;6266753;28;20104;-84
2021/07/17 09:36:27;;;;;;;20.60;18.40;;;19.80;99.90;;;;;;6250662;28;20083;-83
2021/07/17 09:39:33;;;;;;;22.75;20.27;;;19.80;99.90;;;;;;6249472;28;20052;-86
2021/07/17 09:42:33;;;;;;;23.85;18.90;;;19.80;99.90;;;;;;6250469;28;20025;-82
2021/07/17 09:45:36;;;;;;;25.38;20.17;;;19.90;99.90;;;;;;6249589;28;20116;-82
2021/07/17 09:48:36;;;;;;;23.55;17.65;;;19.90;99.90;;;;;;6250056;28;20500;-84
2021/07/17 09:51:37;;;;;;;26.08;20.05;;;20.10;99.90;;;;;;6250235;28;20025;-84
2021/07/17 09:54:39;;;;;;;23.67;18.65;;;20.20;99.90;;;;;;6267102;28;20033;-85
2021/07/17 09:57:39;;;;;;;20.52;18.15;;;20.30;99.90;;;;;;6237570;28;20033;-81
2021/07/17 10:00:41;;;;;;;22.65;18.40;;;20.40;99.90;;;;;;6254367;28;20037;-84
2021/07/17 10:03:42;;;;;;;;;;;20.30;99.90;;;;;;6254884;28;20025;-84
2021/07/17 10:06:59;;;;;;;20.70;18.50;;;20.30;99.90;;;;;;6253907;28;19956;-82
2021/07/17 10:09:59;;;;;;;20.45;17.70;;;20.20;99.90;;;;;;6256725;28;20056;-84
2021/07/17 10:16:58;;;;;;;20.55;17.98;;;22.10;99.90;;;;;;6274879;28;20048;-82
2021/07/17 10:20:00;;;;;;;24.13;18.77;;;20.20;99.90;;;;;;6253839;28;20067;-80
2021/07/17 10:23:00;;;;;;;20.30;17.63;;;20.20;99.90;;;;;;6237303;28;20044;-82
2021/07/17 10:26:23;;;;;;;19.80;17.15;;;20.30;99.90;;;;;;6255832;28;20025;-88
2021/07/17 10:29:24;;;;;;;23.20;19.42;;;21.40;99.90;;;;;;6270108;28;20074;-85
2021/07/17 10:32:25;;;;;;;19.42;17.02;;;20.40;99.90;;;;;;6236201;28;20040;-88
2021/07/17 10:35:25;;;;;;;18.98;16.98;;;20.60;99.90;;;;;;6236341;28;20033;-86
2021/07/17 10:38:27;;;;;;;24.17;17.70;;;20.70;99.90;;;;;;6236391;28;20040;-88
2021/07/17 10:41:31;;;;;;;21.40;17.70;;;20.90;99.90;;;;;;6252740;28;20443;-85
2021/07/17 10:44:48;;;;;;;21.17;17.50;;;21.00;99.90;;;;;;6253430;28;20040;-83
2021/07/17 10:47:52;;;;;;;21.92;17.60;;;21.30;99.90;;;;;;6251851;28;20486;-82
2021/07/17 10:50:54;;;;;;;20.15;15.75;;;21.50;99.90;;;;;;6252988;28;20029;-81
2021/07/17 10:53:55;;;;;;;;;;;21.90;99.90;;;;;;6252902;28;20055;-82
2021/07/17 10:56:55;;;;;;;17.75;15.85;;;22.30;99.90;;;;;;6269865;28;19909;-83
2021/07/17 10:59:56;;;;;;;21.15;16.38;;;22.80;99.90;;;;;;6252202;28;20107;-86
2021/07/17 11:03:29;;;;;;;17.25;15.13;;;23.20;99.90;;;;;;6251448;28;20029;-81
2021/07/17 11:06:36;;;;;;;19.75;14.73;;;23.50;99.90;;;;;;6269031;28;20024;-82
2021/07/17 11:09:47;;;;;;;17.90;15.25;;;23.80;99.90;;;;;;6251858;28;20041;-85
2021/07/17 11:12:50;;;;;;;15.80;14.23;;;24.20;99.90;;;;;;6237077;28;20383;-82
2021/07/17 11:15:50;;;;;;;15.68;13.70;;;24.60;99.90;;;;;;6235098;28;20032;-82
2021/07/17 11:18:51;;;;;;;20.10;16.00;;;24.90;99.90;;;;;;6268405;28;20076;-84
2021/07/17 11:21:52;;;;;;;15.63;13.97;;;25.30;99.90;;;;;;6252069;28;20025;-79
2021/07/17 11:25:02;;;;;;;19.50;15.32;;;25.40;99.80;;;;;;6251556;28;20025;-80
2021/07/17 11:28:03;;;;;;;14.23;12.80;;;26.40;99.90;;;;;;6267394;28;20052;-77
2021/07/17 11:31:27;;;;;;;15.83;13.40;;;25.20;99.90;;;;;;6251411;28;20037;-78
2021/07/17 11:34:32;;;;;;;14.68;13.18;;;25.00;98.60;;;;;;6266953;28;20068;-82
2021/07/17 11:37:32;;;;;;;14.18;12.63;;;25.10;99.90;;;;;;6251314;28;20039;-77
2021/07/17 11:40:33;;;;;;;14.83;13.33;;;25.30;99.90;;;;;;6270015;28;20073;-80
2021/07/17 11:43:34;;;;;;;13.97;12.47;;;25.30;99.90;;;;;;6236318;28;20118;-86
2021/07/17 11:46:35;;;;;;;14.60;13.23;;;25.30;99.90;;;;;;6251308;28;20040;-80
2021/07/17 11:49:40;;;;;;;16.57;13.00;;;25.20;99.90;;;;;;6250765;28;20057;-84
2021/07/17 11:52:40;;;;;;;14.63;13.13;;;25.10;99.90;;;;;;6251582;28;20067;-82
2021/07/17 11:55:41;;;;;;;15.77;12.37;;;25.20;99.90;;;;;;6266695;28;20462;-86
2021/07/17 11:58:42;;;;;;;14.07;12.57;;;25.20;99.90;;;;;;6234347;28;20502;-88
2021/07/17 12:02:08;;;;;;;15.73;13.60;;;25.00;99.90;;;;;;6234400;28;20471;-86
2021/07/17 12:05:14;;;;;;;15.77;13.45;;;25.00;99.90;;;;;;6235652;28;20029;-87
2021/07/17 12:08:14;;;;;;;16.13;14.43;;;25.30;99.90;;;;;;6234347;28;20136;-87
2021/07/17 12:11:16;;;;;;;17.97;14.80;;;25.50;99.90;;;;;;6233590;28;20391;-84
2021/07/17 12:14:20;;;;;;;19.08;15.07;;;25.50;99.90;;;;;;6267284;28;20029;-84
2021/07/17 12:17:21;;;;;;;17.00;15.02;;;25.30;99.90;;;;;;6250313;28;20037;-82
2021/07/17 12:20:23;;;;;;;16.10;13.65;;;25.00;99.90;;;;;;6267596;28;20060;-85
2021/07/17 12:23:24;;;;;;;;;;;24.80;99.90;;;;;;6267575;28;20119;-84
2021/07/17 12:26:25;;;;;;;17.55;15.55;;;24.80;99.90;;;;;;6266454;28;20724;-81
2021/07/17 12:29:25;;;;;;;18.03;15.20;;;24.90;99.90;;;;;;6249951;28;20036;-84
2021/07/17 12:32:26;;;;;;;17.07;14.80;;;24.90;99.90;;;;;;6249785;28;20470;-81
2021/07/17 12:35:27;;;;;;;15.57;14.03;;;24.70;99.90;;;;;;6265854;28;20052;-80
2021/07/17 12:38:29;;;;;;;16.00;14.27;;;24.50;99.90;;;;;;6265896;28;20041;-84
2021/07/17 12:41:30;;;;;;;18.10;14.13;;;24.40;99.90;;;;;;6265864;28;20118;-80
2021/07/17 12:44:31;;;;;;;15.85;13.73;;;24.30;99.90;;;;;;6249007;28;20383;-83
2021/07/17 12:47:31;;;;;;;16.87;15.07;;;24.30;99.90;;;;;;6249392;28;20152;-82
2021/07/17 12:50:32;;;;;;;15.97;13.27;;;24.30;99.90;;;;;;6249188;28;20032;-80
2021/07/17 12:53:33;;;;;;;15.80;14.20;;;24.40;99.90;;;;;;6268200;28;20467;-81
2021/07/17 12:56:50;;;;;;;16.37;14.63;;;24.50;99.90;;;;;;6249374;28;20029;-83
2021/07/17 12:59:50;;;;;;;17.77;15.93;;;24.60;99.90;;;;;;6258863;28;20414;-82
2021/07/17 13:02:52;;;;;;;18.53;15.50;;;24.60;99.90;;;;;;6233610;28;20036;-83
2021/07/17 13:05:54;;;;;;;17.17;15.40;;;24.40;99.90;;;;;;6233105;28;20033;-81
2021/07/17 13:08:56;;;;;;;17.98;16.08;;;24.30;99.90;;;;;;6266617;28;20442;-85
2021/07/17 13:11:58;;;;;;;17.33;15.00;;;24.00;99.90;;;;;;6249929;28;20029;-82
2021/07/17 13:15:00;;;;;;;19.02;15.85;;;23.80;99.90;;;;;;6249748;28;20025;-83
2021/07/17 13:18:11;;;;;;;17.02;15.23;;;23.60;99.90;;;;;;6249913;28;20029;-81
2021/07/17 13:21:12;;;;;;;18.33;15.77;;;23.40;99.90;;;;;;6250722;28;20037;-82
2021/07/17 13:24:14;;;;;;;17.37;15.43;;;23.00;99.90;;;;;;6231454;28;20033;-77
2021/07/17 13:27:23;;;;;;;18.77;16.88;;;22.90;99.90;;;;;;6249927;28;20119;-83
2021/07/17 13:30:30;;;;;;;18.77;16.08;;;22.80;99.90;;;;;;6234709;28;20033;-84
2021/07/17 13:33:31;;;;;;;20.73;16.75;;;22.80;99.90;;;;;;6253129;28;20057;-85
2021/07/17 13:36:32;;;;;;;17.63;15.73;;;22.70;99.90;;;;;;6269403;28;20029;-81
2021/07/17 13:39:59;;;;;;;18.35;16.35;;;22.80;99.90;;;;;;6252880;28;20134;-83
2021/07/17 13:43:04;;;;;;;17.20;15.48;;;22.80;99.90;;;;;;6252117;28;20063;-81
2021/07/17 13:46:05;;;;;;;19.83;15.80;;;22.90;99.90;;;;;;6252062;28;20414;-78
2021/07/17 13:49:12;;;;;;;18.30;16.35;;;22.90;99.90;;;;;;6253189;28;20110;-78
2021/07/17 13:52:38;;;;;;;17.67;15.85;;;23.00;99.90;;;;;;6237799;28;20052;-80
2021/07/17 13:55:48;;;;;;;17.23;15.13;;;23.20;99.90;;;;;;6255145;28;20060;-79
2021/07/17 13:58:59;;;;;;;18.17;15.88;;;23.50;99.90;;;;;;6270367;28;20111;-80
2021/07/17 14:02:06;;;;;;;18.23;16.15;;;23.80;99.90;;;;;;6253876;28;20021;-80
2021/07/17 14:05:08;;;;;;;17.67;15.70;;;23.90;99.90;;;;;;6270456;28;20482;-82
2021/07/17 14:08:09;;;;;;;20.50;16.48;;;23.90;99.90;;;;;;6270371;28;20043;-82
2021/07/17 14:11:12;;;;;;;18.27;16.30;;;23.90;99.90;;;;;;6253494;28;20025;-81
2021/07/17 14:14:12;;;;;;;18.15;16.27;;;24.00;99.90;;;;;;6269247;28;20029;-80
2021/07/17 14:17:13;;;;;;;19.33;16.23;;;24.00;99.90;;;;;;6269438;28;20056;-82
2021/07/17 14:20:13;;;;;;;18.50;16.43;;;24.00;99.90;;;;;;6252634;28;20217;-80
2021/07/17 14:23:14;;;;;;;19.97;16.10;;;23.80;99.90;;;;;;6268897;28;20541;-82
2021/07/17 14:26:15;;;;;;;16.87;15.07;;;23.80;99.90;;;;;;6252794;28;20033;-81
2021/07/17 14:29:15;;;;;;;17.77;15.97;;;23.80;99.90;;;;;;6269119;28;20391;-80
2021/07/17 14:32:16;;;;;;;19.50;15.80;;;24.00;99.90;;;;;;6252983;28;20036;-80
2021/07/17 14:35:16;;;;;;;18.27;16.23;;;24.10;99.90;;;;;;6267070;28;20064;-81
2021/07/17 14:38:18;;;;;;;21.10;17.30;;;24.30;99.90;;;;;;6269758;28;20494;-77
2021/07/17 14:41:19;;;;;;;20.65;18.48;;;24.40;99.90;;;;;;6252176;28;20036;-79
2021/07/17 14:44:19;;;;;;;18.80;16.93;;;24.40;99.90;;;;;;6235775;28;20515;-79
2021/07/17 14:47:20;;;;;;;18.50;16.13;;;24.30;99.90;;;;;;6235532;28;20503;-74
2021/07/17 14:50:20;;;;;;;20.37;18.23;;;24.10;99.90;;;;;;6270597;28;20455;-79
2021/07/17 14:53:21;;;;;;;20.63;18.43;;;23.90;99.90;;;;;;6269085;28;20029;-78
2021/07/17 14:56:22;;;;;;;22.47;18.40;;;23.70;99.90;;;;;;6268075;28;20032;-80
2021/07/17 14:59:23;;;;;;;20.88;17.75;;;23.60;99.90;;;;;;6268131;28;20037;-79
2021/07/17 15:02:26;;;;;;;20.23;18.17;;;23.50;99.90;;;;;;6269859;28;20465;-81
2021/07/17 15:05:27;;;;;;;20.63;17.80;;;23.50;99.90;;;;;;6270519;28;20116;-79
2021/07/17 15:08:28;;;;;;;20.47;18.03;;;23.60;99.90;;;;;;6268134;28;20532;-80
2021/07/17 15:11:29;;;;;;;19.97;17.83;;;23.60;99.90;;;;;;6267466;28;20044;-80
2021/07/17 15:14:29;;;;;;;20.33;18.10;;;23.80;99.90;;;;;;6249252;28;20752;-80
2021/07/17 15:17:31;;;;;;;19.93;17.90;;;24.10;99.90;;;;;;6268966;28;20055;-81
2021/07/17 15:55:33;;;;;;;22.40;20.02;;;22.60;99.90;;;;;;6187254;28;20157;-80
2021/07/17 15:58:33;;;;;;;23.33;20.83;;;22.50;99.90;;;;;;6187681;28;20087;-84
2021/07/17 16:01:34;;;;;;;22.63;19.02;;;22.60;99.90;;;;;;6169746;28;20035;-83
2021/07/17 16:04:35;;;;;;;19.95;17.85;;;22.60;99.90;;;;;;6169713;28;20034;-84
2021/07/17 16:07:36;;;;;;;20.50;17.90;;;22.70;99.90;;;;;;6186030;28;20030;-83
2021/07/17 16:10:37;;;;;;;21.00;18.77;;;22.70;99.90;;;;;;6169620;28;20022;-84